Latest Coastal Weather Observations for Coolangatta

IDQ60701

Issued at 4:52 am EST Sunday 2 October 2016 (issued every 10 minutes, with the page automatically refreshed every 10 minutes)

About coastal observations | Map of coastal stations | Coastal observations for QLD | Marine services | Other Formats
Station Details ID: 040717 Name: COOLANGATTA Lat: -28.17 Lon: 153.51 Height: 4.0 m
Data from the previous 72 hours. | See also: Recent months at Coolangatta
Date/Time
EST
Temp
°C
Wind Pressure Rain since
9am
mm
Weather Cloud Vis
km
Sea
Height
m
Swell
Dir  Spd
kts
Gust
kts
hPa Trend Height
m
Period
s
Dir
02/04:30am 10.1 WSW 4 6 1014.3 - 0.0 - - 10 - - - -
02/04:00am 10.1 WSW 4 6 1013.9 - 0.0 - - 10 - - - -
02/03:30am 9.9 SSW 3 7 1013.6 - 0.0 - - 10 - - - -
02/03:00am 10.3 SW 3 5 1013.4 - 0.0 - - 10 - - - -
02/02:30am 9.9 WSW 1 4 1013.4 - 0.0 - - 10 - - - -
02/02:00am 10.6 WSW 4 6 1013.5 - 0.0 - - 10 - - - -
02/01:30am 9.0 CALM 0 5 1013.5 - 0.0 - - 10 - - - -
02/01:00am 9.9 S 1 3 1013.4 - 0.0 - - 10 - - - -
02/12:30am 11.7 SW 3 4 1013.4 - 0.0 - - 10 - - - -
02/12:00am 12.2 SW 4 6 1013.2 - 0.0 - - 10 - - - -
 
Date/Time
EST
Temp
°C
Wind Pressure Rain since
9am
mm
Weather Cloud Vis
km
Sea
Height
m
Swell
Dir  Spd
kts
Gust
kts
hPa Trend Height
m
Period
s
Dir
01/11:30pm 12.0 WSW 6 7 1013.0 - 0.0 - - 10 - - - -
01/11:00pm 11.6 WSW 5 6 1013.0 - 0.0 - - 10 - - - -
01/10:30pm 12.4 SW 4 5 1013.3 - 0.0 - - 10 - - - -
01/10:00pm 12.4 CALM 0 3 1013.4 - 0.0 - - 10 - - - -
01/09:30pm 13.4 WSW 4 6 1013.6 - 0.0 - - 10 - - - -
01/09:00pm 14.0 SSW 4 6 1013.7 - 0.0 - - 10 - - - -
01/08:30pm 13.3 W 5 7 1013.4 - 0.0 - - 10 - - - -
01/08:00pm 15.2 WNW 5 7 1013.0 - 0.0 - - 10 - - - -
01/07:30pm 16.3 S 5 6 1012.4 - 0.0 - - 10 - - - -
01/07:00pm 18.9 WNW 6 7 1011.7 - 0.0 - - 10 - - - -
01/06:30pm 19.5 NW 7 8 1011.3 - 0.0 - - 10 - - - -
01/06:00pm 21.0 WNW 6 8 1010.7 - 0.0 - - 10 - - - -
01/05:30pm 23.0 WNW 8 11 1010.2 - 0.0 - - 10 - - - -
01/05:00pm 24.5 W 8 13 1010.0 - 0.0 - - 10 - - - -
01/04:30pm 25.4 WNW 10 15 1009.6 - 0.0 - - 10 - - - -
01/04:00pm 25.6 WNW 12 18 1009.2 - 0.0 - - 10 - - - -
01/03:30pm 26.4 NW 9 15 1009.0 - 0.0 - - 10 - - - -
01/03:00pm 26.3 NW 11 17 1009.0 - 0.0 - - 10 - - - -
01/02:47pm 25.9 WNW 13 25 1008.9 - 0.0 - - 10 - - - -
01/02:30pm 27.1 WNW 11 17 1008.9 - 0.0 - - 10 - - - -
01/02:00pm 26.1 WNW 11 17 1009.1 - 0.0 - - 10 - - - -
01/01:30pm 26.6 WNW 10 16 1009.4 - 0.0 - - 10 - - - -
01/01:00pm 26.0 NW 9 18 1009.6 - 0.0 - - 10 - - - -
01/12:30pm 22.6 NNE 12 15 1010.1 - 0.0 - - 10 - - - -
01/12:00pm 21.8 NNE 13 16 1010.3 - 0.0 - - 10 - - - -
01/11:30am 21.5 NE 11 14 1011.1 - 0.0 - - 10 - - - -
01/11:00am 21.3 NNE 12 15 1011.4 - 0.0 - - 10 - - - -
01/10:30am 20.3 NNE 10 13 1012.0 - 0.0 - - 10 - - - -
01/10:00am 19.7 NNE 8 11 1012.4 - 0.0 - - 10 - - - -
01/09:30am 19.9 NNE 7 9 1012.6 - 0.0 - - 10 - - - -
01/09:00am 19.7 N 7 9 1012.9 - 0.0 - - 10 - - - -
01/08:30am 18.3 N 7 9 1012.7 - 0.0 - - 10 - - - -
01/08:00am 17.8 NNW 2 4 1012.3 - 0.0 - - 10 - - - -
01/07:30am 15.6 WSW 2 4 1012.1 - 0.0 - - 10 - - - -
01/07:00am 13.2 CALM 0 3 1011.8 - 0.0 - - 10 - - - -
01/06:30am 11.1 CALM 0 0 1011.3 - 0.0 - - 10 - - - -
01/06:00am 9.0 S 2 4 1011.3 - 0.0 - - 10 - - - -
01/05:30am 8.1 CALM 0 3 1011.1 - 0.0 - - 10 - - - -
01/05:00am 7.9 SW 2 4 1010.9 - 0.0 - - 10 - - - -
01/04:30am 7.6 WSW 3 6 1010.6 - 0.0 - - 10 - - - -
01/04:00am 8.0 WSW 5 6 1009.7 - 0.0 - - 10 - - - -
01/03:30am 8.8 SW 3 5 1009.5 - 0.0 - - 10 - - - -
01/03:00am 8.5 W 6 8 1009.4 - 0.0 - - 10 - - - -
01/02:30am 8.0 W 5 8 1009.2 - 0.0 - - 10 - - - -
01/02:00am 8.2 W 5 6 1009.5 - 0.0 - - 10 - - - -
01/01:30am 8.9 WSW 5 7 1009.9 - 0.0 - - 10 - - - -
01/01:00am 10.1 WSW 5 6 1009.7 - 0.0 - - 10 - - - -
01/12:30am 10.3 W 6 7 1009.6 - 0.0 - - 10 - - - -
01/12:00am 10.4 WSW 4 5 1009.4 - 0.0 - - 10 - - - -
 
Date/Time
EST
Temp
°C
Wind Pressure Rain since
9am
mm
Weather Cloud Vis
km
Sea
Height
m
Swell
Dir  Spd
kts
Gust
kts
hPa Trend Height
m
Period
s
Dir
30/11:30pm 11.4 WSW 7 8 1009.4 - 0.0 - - 10 - - - -
30/11:00pm 11.6 WSW 6 8 1009.6 - 0.0 - - 10 - - - -
30/10:30pm 11.1 W 4 6 1009.7 - 0.0 - - 10 - - - -
30/10:00pm 13.3 WSW 4 4 1009.6 - 0.0 - - 10 - - - -
30/09:30pm 14.8 NW 6 7 1009.3 - 0.0 - - 10 - - - -
30/09:00pm 15.8 NW 7 8 1009.1 - 0.0 - - 10 - - - -
30/08:30pm 16.9 NW 6 9 1008.9 - 0.0 - - 10 - - - -
30/08:00pm 18.1 NW 6 9 1008.6 - 0.0 - - 10 - - - -
30/07:30pm 18.8 NW 10 14 1007.7 - 0.0 - - 10 - - - -
30/07:00pm 19.7 NW 10 14 1007.0 - 0.0 - - 10 - - - -
30/06:30pm 19.8 WNW 10 15 1006.4 - 0.0 - - 10 - - - -
30/06:00pm 20.2 NW 12 18 1005.9 - 0.0 - - 10 - - - -
30/05:30pm 21.3 WNW 8 16 1005.4 - 0.0 - - 10 - - - -
30/05:00pm 22.2 WNW 13 20 1004.3 - 0.0 - - 10 - - - -
30/04:30pm 23.1 WNW 12 18 1003.8 - 0.0 - - 10 - - - -
30/04:03pm 23.6 W 15 25 1003.3 - 0.0 - - 10 - - - -
30/04:00pm 23.7 W 15 23 1003.2 - 0.0 - - 10 - - - -
30/03:30pm 24.6 W 12 19 1003.1 - 0.0 - - 10 - - - -
30/03:10pm 24.6 NW 15 25 1002.9 - 0.0 - - 10 - - - -
30/03:00pm 24.4 WNW 18 26 1002.7 - 0.0 - - 10 - - - -
30/02:40pm 24.8 WNW 17 27 1002.3 - 0.0 - - 10 - - - -
30/02:30pm 24.3 WNW 20 28 1002.2 - 0.0 - - 10 - - - -
30/02:00pm 24.4 WNW 17 27 1002.1 - 0.0 - - 10 - - - -
30/01:56pm 24.8 WNW 15 25 1002.0 - 0.0 - - 10 - - - -
30/01:30pm 24.5 NW 16 24 1002.0 - 0.0 - - 10 - - - -
30/01:20pm 24.3 WNW 15 26 1002.0 - 0.0 - - 10 - - - -
30/01:00pm 24.0 NW 14 24 1002.2 - 0.0 - - 10 - - - -
30/12:32pm 24.2 NNW 16 26 1002.7 - 0.0 - - 10 - - - -
30/12:30pm 23.8 NW 17 26 1002.8 - 0.0 - - 10 - - - -
30/12:06pm 23.9 NW 15 26 1002.9 - 0.0 - - 10 - - - -
30/12:00pm 24.1 NW 11 21 1003.0 - 0.0 - - 10 - - - -
30/11:30am 23.2 NW 15 24 1003.5 - 0.0 - - 10 - - - -
30/11:27am 23.7 NW 15 27 1003.5 - 0.0 - - 10 - - - -
30/11:00am 23.4 NW 12 19 1004.0 - 0.0 - - 10 - - - -
30/10:30am 22.8 WNW 13 21 1004.2 - 0.0 - - 10 - - - -
30/10:09am 21.8 WNW 15 25 1004.4 - 0.0 - - 10 - - - -
30/10:00am 22.1 NW 16 23 1004.5 - 0.0 - - 10 - - - -
30/09:30am 21.6 WNW 13 17 1004.6 - 0.0 - - 10 - - - -
30/09:00am 21.4 NW 13 20 1005.0 - 3.4 - - 10 - - - -
30/08:30am 21.1 WNW 11 16 1005.5 - 3.4 - - 10 - - - -
30/08:00am 20.5 NW 11 17 1005.6 - 3.4 - - 10 - - - -
30/07:30am 19.8 NW 6 8 1005.7 - 3.4 - - 10 - - - -
30/07:00am 19.4 NW 5 8 1005.5 - 3.4 - - 10 - - - -
30/06:30am 18.2 NW 5 6 1005.4 - 3.4 - - 10 - - - -
30/06:00am 16.0 NNW 4 5 1005.3 - 3.4 Recent precip. - 10 - - - -
30/05:30am 16.0 NW 4 5 1005.0 - 3.4 - Partly cloudy 10 - - - -
30/05:00am 15.9 NW 5 7 1004.6 - 3.2 - - 10 - - - -
30/04:30am 15.8 WNW 5 6 1004.4 - 3.2 - - 10 - - - -
30/04:00am 16.1 NW 4 6 1004.6 - 3.2 - - 10 - - - -
30/03:30am 16.7 NNW 6 8 1004.5 - 3.2 - Partly cloudy 10 - - - -
30/03:00am 16.3 WNW 5 9 1004.4 - 3.2 - Mostly clear 10 - - - -
30/02:30am 16.5 NW 5 7 1004.6 - 3.2 - Partly cloudy 10 - - - -
30/02:00am 16.9 NW 6 9 1004.8 - 3.2 - Partly cloudy 10 - - - -
30/01:31am 17.3 NW 9 13 1005.6 - 3.2 - Partly cloudy 10 - - - -
30/01:30am 17.3 NW 10 14 1005.6 - 3.2 - Partly cloudy 10 - - - -
30/01:11am 17.9 NW 9 13 1005.7 - 2.4 - Cloudy 5 - - - -
30/01:00am 19.0 NW 9 11 1005.6 - 0.0 - Cloudy 10 - - - -
30/12:30am 19.3 NW 13 21 1005.6 - 0.0 - Cloudy 10 - - - -
30/12:00am 19.1 NNW 10 18 1005.9 - 0.0 - Mostly cloudy 10 - - - -
 
Date/Time
EST
Temp
°C
Wind Pressure Rain since
9am
mm
Weather Cloud Vis
km
Sea
Height
m
Swell
Dir  Spd
kts
Gust
kts
hPa Trend Height
m
Period
s
Dir
29/11:30pm 18.8 NNW 11 16 1006.1 - 0.0 - - 10 - - - -
29/11:00pm 19.2 NNW 14 23 1006.1 - 0.0 - - 10 - - - -
29/10:30pm 18.8 NNW 11 17 1006.1 - 0.0 - Partly cloudy 10 - - - -
29/10:00pm 18.9 NNW 15 23 1006.3 - 0.0 - - 10 - - - -
29/09:30pm 19.0 NNW 13 21 1006.3 - 0.0 - - 10 - - - -
29/09:00pm 19.0 NNW 10 16 1006.3 - 0.0 - - 10 - - - -
29/08:30pm 19.2 NNW 13 22 1006.4 - 0.0 - - 10 - - - -
29/08:00pm 19.3 NNW 9 14 1006.6 - 0.0 - Partly cloudy 10 - - - -
29/07:30pm 19.4 NNW 10 15 1006.3 - 0.0 - Partly cloudy 10 - - - -
29/07:00pm 19.6 NW 10 15 1006.0 - 0.0 - Cloudy 10 - - - -
29/06:30pm 19.0 NW 8 11 1006.1 - 0.0 - Cloudy 10 - - - -
29/06:00pm 18.5 NW 10 14 1005.6 - 0.0 - Cloudy 10 - - - -
29/05:30pm 18.7 NW 9 14 1005.6 - 0.0 - Partly cloudy 10 - - - -
29/05:00pm 18.1 NW 11 15 1005.8 - 0.0 - Partly cloudy 10 - - - -
29/04:30pm 18.6 WNW 11 19 1005.4 - 0.0 - Partly cloudy 10 - - - -
29/04:00pm 21.3 NW 11 15 1005.7 - 0.0 - Partly cloudy 10 - - - -
29/03:30pm 21.5 WNW 10 13 1005.6 - 0.0 - Cloudy 10 - - - -
29/03:00pm 22.0 NNW 12 19 1005.2 - 0.0 - Cloudy 10 - - - -
29/02:30pm 22.5 NW 14 20 1005.6 - 0.0 - Partly cloudy 10 - - - -
29/02:00pm 22.4 NNW 10 15 1006.1 - 0.0 - Partly cloudy 10 - - - -
29/01:30pm 22.4 NW 12 19 1006.3 - 0.0 - Partly cloudy 10 - - - -
29/01:00pm 22.4 NW 14 20 1006.9 - 0.0 - Partly cloudy 10 - - - -
29/12:32pm 23.0 NNW 16 26 1007.2 - 0.0 - Partly cloudy 10 - - - -
29/12:30pm 23.1 NNW 17 23 1007.1 - 0.0 - Partly cloudy 10 - - - -
29/12:00pm 22.5 N 20 25 1007.5 - 0.0 - Cloudy 10 - - - -
29/11:30am 22.4 N 17 20 1007.4 - 0.0 - Cloudy 10 - - - -
29/11:00am 22.4 N 16 20 1007.6 - 0.0 - Cloudy 10 - - - -
29/10:30am 22.7 N 15 18 1008.0 - 0.0 - Partly cloudy 10 - - - -
29/10:00am 22.0 NNW 15 20 1008.5 - 0.0 - Partly cloudy 10 - - - -
29/09:30am 23.0 NNW 13 18 1008.6 - 0.0 - Partly cloudy 10 - - - -
29/09:00am 22.1 N 11 15 1008.5 - 0.0 - Cloudy 10 - - - -
29/08:30am 20.7 N 6 8 1009.5 - 0.0 - Cloudy 10 - - - -
29/08:00am 20.1 NNW 5 7 1009.7 - 0.0 - Partly cloudy 10 - - - -
29/07:30am 19.5 NW 6 9 1009.7 - 0.0 - Cloudy 10 - - - -
29/07:00am 19.8 NNW 9 13 1009.3 - 0.0 - Cloudy 10 - - - -
29/06:30am 19.6 NNW 9 14 1009.0 - 0.0 - Cloudy 10 - - - -
29/06:00am 19.2 NW 6 9 1009.1 - 0.0 - Cloudy 10 - - - -
29/05:30am 18.9 NW 7 10 1008.8 - 0.0 - - 10 - - - -
29/05:00am 18.8 NW 7 10 1008.8 - 0.0 - - 10 - - - -

Other Formats:

Comma delimited format used in spreadsheet applications
http://www.bom.gov.au/fwo/IDQ60701/IDQ60701.94592.axf

JavaScript Object Notation format (JSON) in row-major order
http://www.bom.gov.au/fwo/IDQ60701/IDQ60701.94592.json